createdAt,value
2019-05-22T00:00:02.319Z,97835.38
2019-05-22T00:01:29.990Z,97848.77
2019-05-22T00:02:36.110Z,97848.77
2019-05-22T00:03:48.820Z,97845.05
2019-05-22T00:04:55.849Z,97847.67
2019-05-22T00:06:03.777Z,97852.44
2019-05-22T00:07:10.686Z,97852.44
2019-05-22T00:08:14.407Z,97851.31
2019-05-22T00:09:29.713Z,97847.88
2019-05-22T00:10:34.958Z,97837.08
2019-05-22T00:11:38.295Z,97837.08
2019-05-22T00:12:46.742Z,97844.91
2019-05-22T00:13:48.811Z,97844.81
2019-05-22T00:14:55.190Z,97844.81
2019-05-22T00:16:00.160Z,97849.34
2019-05-22T00:17:03.824Z,97845.47
2019-05-22T00:18:07.625Z,97843.77
2019-05-22T00:19:12.719Z,97843.66
2019-05-22T00:20:17.242Z,97843.66
2019-05-22T00:21:21.941Z,97846.59
2019-05-22T00:22:31.542Z,97846.59
2019-05-22T00:23:35.490Z,97851.13
2019-05-22T00:24:39.949Z,97849.42
2019-05-22T00:25:44.574Z,97849.42
2019-05-22T00:26:47.641Z,97848.16
2019-05-22T00:27:51.182Z,97848.16
2019-05-22T00:28:54.178Z,97841.08
2019-05-22T00:29:58.409Z,97850.48
2019-05-22T00:31:01.748Z,97850.38
2019-05-22T00:32:07.542Z,97848.27
2019-05-22T00:33:12.380Z,97850.04
2019-05-22T00:34:16.564Z,97851.84
2019-05-22T00:35:21.589Z,97849.36
2019-05-22T00:36:24.925Z,97849.36
2019-05-22T00:37:27.879Z,97849.49
2019-05-22T00:38:32.534Z,97849.49
2019-05-22T00:39:38.366Z,97843.64
2019-05-22T00:40:46.291Z,97849.91
2019-05-22T00:41:51.082Z,97849.91
2019-05-22T00:43:03.243Z,97854.67
2019-05-22T00:44:00.295Z,97850.69
2019-05-22T00:45:04.719Z,97845.34
2019-05-22T00:46:08.261Z,97854.39
2019-05-22T00:47:14.141Z,97852.05
2019-05-22T00:48:19.129Z,97843.74
2019-05-22T00:49:25.700Z,97852.56
2019-05-22T00:50:29.502Z,97856.06
2019-05-22T00:51:59.987Z,97852.08
2019-05-22T00:53:21.523Z,97852.08
2019-05-22T00:54:43.597Z,97852.97
2019-05-22T00:55:50.868Z,97852.97
2019-05-22T00:57:18.769Z,97853.78
2019-05-22T00:58:27.141Z,97853.78
2019-05-22T00:59:33.981Z,97857.87
2019-05-22T01:00:40.250Z,97857.87
2019-05-22T01:01:50.961Z,97858.72
2019-05-22T01:02:54.984Z,97853.41
2019-05-22T01:03:59.065Z,97855.89
2019-05-22T01:05:04.687Z,97859.53
2019-05-22T01:06:09.204Z,97862.05
2019-05-22T01:07:18.154Z,97854.39
2019-05-22T01:08:22.762Z,97854.39
2019-05-22T01:09:32.573Z,97856.20
2019-05-22T01:10:36.282Z,97861.34
2019-05-22T01:11:39.936Z,97857.70
2019-05-22T01:12:45.152Z,97856.20
2019-05-22T01:13:47.920Z,97858.83
2019-05-22T01:14:52.788Z,97855.28
2019-05-22T01:15:56.303Z,97863.48
2019-05-22T01:17:00.843Z,97863.05
2019-05-22T01:18:05.220Z,97862.91
2019-05-22T01:19:08.896Z,97858.14
2019-05-22T01:20:14.917Z,97858.38
2019-05-22T01:21:22.115Z,97859.74
2019-05-22T01:22:26.110Z,97862.80
2019-05-22T01:23:30.469Z,97856.67
2019-05-22T01:24:33.902Z,97858.38
2019-05-22T01:25:40.885Z,97865.09
2019-05-22T01:26:44.065Z,97865.09
2019-05-22T01:27:49.464Z,97861.34
2019-05-22T01:28:53.883Z,97860.32
2019-05-22T01:29:58.598Z,97863.25
2019-05-22T01:31:20.138Z,97861.64
2019-05-22T01:32:33.512Z,97868.59
2019-05-22T01:33:56.727Z,97869.58
2019-05-22T01:35:00.782Z,97872.09
2019-05-22T01:36:28.870Z,97866.41
2019-05-22T01:37:31.875Z,97871.89
2019-05-22T01:38:36.849Z,97863.34
2019-05-22T01:39:48.492Z,97863.34
2019-05-22T01:40:56.105Z,97873.45
2019-05-22T01:41:58.987Z,97864.47
2019-05-22T01:43:04.426Z,97866.51
2019-05-22T01:44:09.578Z,97866.51
2019-05-22T01:45:15.920Z,97871.31
2019-05-22T01:46:20.281Z,97870.12
2019-05-22T01:47:23.724Z,97870.12
2019-05-22T01:48:27.568Z,97872.78
2019-05-22T01:49:32.252Z,97881.42
2019-05-22T01:50:35.532Z,97880.47
2019-05-22T01:51:39.657Z,97877.98
2019-05-22T01:52:43.165Z,97882.89
2019-05-22T01:53:47.927Z,97880.57
2019-05-22T01:54:52.359Z,97876.83
2019-05-22T01:56:00.500Z,97883.34
2019-05-22T01:57:05.104Z,97875.98
2019-05-22T01:58:08.733Z,97875.73
2019-05-22T01:59:12.121Z,97880.61
2019-05-22T02:00:15.532Z,97880.61
2019-05-22T02:01:24.502Z,97885.86
2019-05-22T02:02:27.668Z,97880.17
2019-05-22T02:03:33.212Z,97881.23
2019-05-22T02:04:36.248Z,97871.55
2019-05-22T02:05:39.836Z,97880.64
2019-05-22T02:06:43.768Z,97882.45
2019-05-22T02:07:47.132Z,97882.80
2019-05-22T02:08:52.277Z,97878.70
2019-05-22T02:09:57.875Z,97878.70
2019-05-22T02:11:02.248Z,97878.95
2019-05-22T02:12:06.715Z,97884.39
2019-05-22T02:13:09.950Z,97882.80
2019-05-22T02:14:13.421Z,97886.09
2019-05-22T02:15:16.519Z,97872.92
2019-05-22T02:16:21.147Z,97874.14
2019-05-22T02:17:24.264Z,97877.23
2019-05-22T02:18:28.779Z,97877.23
2019-05-22T02:19:31.639Z,97876.22
2019-05-22T02:20:35.063Z,97876.22
2019-05-22T02:21:38.173Z,97869.28
2019-05-22T02:22:41.910Z,97873.73
2019-05-22T02:23:46.229Z,97873.73
2019-05-22T02:24:51.945Z,97864.55
2019-05-22T02:25:54.883Z,97862.70
2019-05-22T02:26:59.687Z,97862.70
2019-05-22T02:28:02.846Z,97874.83
2019-05-22T02:29:07.264Z,97865.83
2019-05-22T02:30:10.961Z,97859.27
2019-05-22T02:31:17.757Z,97869.86
2019-05-22T02:32:20.986Z,97875.20
2019-05-22T02:33:25.752Z,97866.79
2019-05-22T02:34:29.252Z,97874.52
2019-05-22T02:35:35.378Z,97870.09
2019-05-22T02:36:39.995Z,97874.42
2019-05-22T02:37:44.266Z,97864.88
2019-05-22T02:38:49.059Z,97874.55
2019-05-22T02:39:54.490Z,97869.17
2019-05-22T02:40:57.725Z,97869.52
2019-05-22T02:42:02.538Z,97871.49
2019-05-22T02:43:07.126Z,97871.49
2019-05-22T02:44:10.941Z,97865.02
2019-05-22T02:45:13.913Z,97870.88
2019-05-22T02:46:18.352Z,97870.88
2019-05-22T02:47:23.057Z,97870.19
2019-05-22T02:48:31.837Z,97872.78
2019-05-22T02:49:36.503Z,97872.78
2019-05-22T02:50:53.043Z,97872.92
2019-05-22T02:51:56.440Z,97865.49
2019-05-22T02:53:06.304Z,97872.50
2019-05-22T02:54:09.698Z,97872.50
2019-05-22T02:55:13.206Z,97867.73
2019-05-22T02:56:16.412Z,97866.81
2019-05-22T02:57:20.297Z,97866.81
2019-05-22T02:58:24.659Z,97870.73
2019-05-22T02:59:28.350Z,97865.93
2019-05-22T03:00:31.476Z,97872.36
2019-05-22T03:01:34.871Z,97876.14
2019-05-22T03:02:38.222Z,97879.98
2019-05-22T03:03:42.013Z,97876.83
2019-05-22T03:04:44.809Z,97881.15
2019-05-22T03:05:49.270Z,97890.78
2019-05-22T03:06:53.538Z,97888.05
2019-05-22T03:07:58.379Z,97888.30
2019-05-22T03:09:01.226Z,97880.33
2019-05-22T03:10:05.704Z,97886.59
2019-05-22T03:11:09.918Z,97886.59
2019-05-22T03:12:16.971Z,97882.98
2019-05-22T03:13:20.982Z,97879.98
2019-05-22T03:14:25.849Z,97889.22
2019-05-22T03:15:28.733Z,97888.23
2019-05-22T03:16:32.091Z,97886.36
2019-05-22T03:17:35.021Z,97892.92
2019-05-22T03:18:39.245Z,97894.66
2019-05-22T03:19:43.456Z,97884.66
2019-05-22T03:20:47.519Z,97884.66
2019-05-22T03:21:50.480Z,97884.80
2019-05-22T03:22:53.982Z,97884.80
2019-05-22T03:23:56.941Z,97891.16
2019-05-22T03:25:01.206Z,97886.84
2019-05-22T03:26:04.941Z,97888.44
2019-05-22T03:27:10.699Z,97888.44
2019-05-22T03:28:14.291Z,97890.24
2019-05-22T03:29:17.735Z,97884.05
2019-05-22T03:30:21.788Z,97898.31
2019-05-22T03:31:25.709Z,97887.95
2019-05-22T03:32:28.686Z,97892.38
2019-05-22T03:33:32.191Z,97895.14
2019-05-22T03:34:35.327Z,97893.74
2019-05-22T03:35:39.610Z,97893.84
2019-05-22T03:36:43.329Z,97893.84
2019-05-22T03:37:47.154Z,97902.40
2019-05-22T03:38:50.973Z,97902.20
2019-05-22T03:39:54.678Z,97894.91
2019-05-22T03:40:57.517Z,97896.41
2019-05-22T03:42:01.224Z,97904.78
2019-05-22T03:43:04.421Z,97905.50
2019-05-22T03:44:08.089Z,97912.75
2019-05-22T03:45:11.367Z,97903.76
2019-05-22T03:46:16.475Z,97903.76
2019-05-22T03:47:19.369Z,97912.75
2019-05-22T03:48:23.503Z,97912.75
2019-05-22T03:49:30.609Z,97903.42
2019-05-22T03:50:32.888Z,97914.01
2019-05-22T03:51:36.704Z,97910.03
2019-05-22T03:52:40.455Z,97907.55
2019-05-22T03:53:44.160Z,97910.27
2019-05-22T03:54:47.927Z,97913.09
2019-05-22T03:55:51.257Z,97918.58
2019-05-22T03:56:56.021Z,97916.67
2019-05-22T03:57:59.429Z,97917.46
2019-05-22T03:59:03.332Z,97913.37
2019-05-22T04:00:06.250Z,97914.05
2019-05-22T04:01:10.050Z,97914.05
2019-05-22T04:02:13.651Z,97916.44
2019-05-22T04:03:20.443Z,97913.81
2019-05-22T04:04:23.282Z,97913.81
2019-05-22T04:05:27.302Z,97908.47
2019-05-22T04:06:32.066Z,97912.21
2019-05-22T04:07:36.475Z,97912.21
2019-05-22T04:08:40.013Z,97918.30
2019-05-22T04:09:45.751Z,97918.30
2019-05-22T04:10:48.588Z,97922.39
2019-05-22T04:11:55.991Z,97917.62
2019-05-22T04:12:58.993Z,97917.62
2019-05-22T04:14:02.981Z,97924.23
2019-05-22T04:15:07.819Z,97924.23
2019-05-22T04:16:12.508Z,97928.22
2019-05-22T04:17:16.973Z,97927.53
2019-05-22T04:18:22.925Z,97922.22
2019-05-22T04:19:25.452Z,97917.38
2019-05-22T04:20:28.839Z,97923.66
2019-05-22T04:21:31.660Z,97921.27
2019-05-22T04:22:35.803Z,97918.74
2019-05-22T04:23:39.040Z,97923.30
2019-05-22T04:24:43.987Z,97926.81
2019-05-22T04:25:53.159Z,97926.81
2019-05-22T04:26:54.456Z,97926.95
2019-05-22T04:27:57.372Z,97923.89
2019-05-22T04:29:00.998Z,97922.22
2019-05-22T04:30:04.512Z,97930.46
2019-05-22T04:31:08.257Z,97933.12
2019-05-22T04:32:38.647Z,97935.70
2019-05-22T04:33:41.529Z,97928.17
2019-05-22T04:34:45.259Z,97934.63
2019-05-22T04:35:49.653Z,97934.73
2019-05-22T04:36:54.911Z,97940.08
2019-05-22T04:37:57.886Z,97940.08
2019-05-22T04:39:01.676Z,97936.69
2019-05-22T04:40:06.068Z,97936.69
2019-05-22T04:41:13.149Z,97940.08
2019-05-22T04:42:16.219Z,97934.49
2019-05-22T04:43:23.183Z,97938.09
2019-05-22T04:44:26.790Z,97929.09
2019-05-22T04:45:30.584Z,97932.27
2019-05-22T04:46:33.941Z,97940.03
2019-05-22T04:47:37.490Z,97938.77
2019-05-22T04:48:45.248Z,97938.77
2019-05-22T04:49:45.300Z,97930.17
2019-05-22T04:50:48.191Z,97943.59
2019-05-22T04:51:52.093Z,97946.08
2019-05-22T04:52:54.902Z,97934.20
2019-05-22T04:54:00.765Z,97934.20
2019-05-22T04:55:05.183Z,97935.95
2019-05-22T04:56:08.893Z,97935.95
2019-05-22T04:57:11.916Z,97940.13
2019-05-22T04:58:18.954Z,97943.40
2019-05-22T04:59:21.929Z,97945.14
2019-05-22T05:00:30.224Z,97945.14
2019-05-22T05:01:31.357Z,97942.86
2019-05-22T05:02:34.849Z,97950.02
2019-05-22T05:03:37.754Z,97947.58
2019-05-22T05:04:41.170Z,97944.17
2019-05-22T05:05:46.613Z,97952.48
2019-05-22T05:06:51.148Z,97952.48
2019-05-22T05:07:54.178Z,97950.41
2019-05-22T05:08:57.697Z,97950.41
2019-05-22T05:10:00.649Z,97952.48
2019-05-22T05:11:04.574Z,97958.05
2019-05-22T05:12:07.483Z,97958.05
2019-05-22T05:13:11.424Z,97955.89
2019-05-22T05:14:14.451Z,97964.99
2019-05-22T05:15:17.889Z,97965.23
2019-05-22T05:16:20.679Z,97965.23
2019-05-22T05:17:24.813Z,97960.55
2019-05-22T05:18:27.868Z,97950.73
2019-05-22T05:19:33.460Z,97956.97
2019-05-22T05:20:36.373Z,97956.97
2019-05-22T05:21:39.807Z,97963.47
2019-05-22T05:22:43.342Z,97964.06
2019-05-22T05:23:46.723Z,97969.56
2019-05-22T05:24:49.914Z,97964.89
2019-05-22T05:25:53.811Z,97961.29
2019-05-22T05:26:57.010Z,97965.37
2019-05-22T05:28:01.623Z,97963.77
2019-05-22T05:29:04.582Z,97962.41
2019-05-22T05:43:52.886Z,97961.39
2019-05-22T05:44:56.295Z,97977.08
2019-05-22T05:45:59.348Z,97965.42
2019-05-22T05:47:04.308Z,97965.42
2019-05-22T05:48:07.251Z,97976.22
2019-05-22T05:49:12.002Z,97964.40
2019-05-22T05:50:15.552Z,97970.63
2019-05-22T05:51:19.306Z,97970.63
2019-05-22T05:52:22.278Z,97968.77
2019-05-22T05:53:26.629Z,97971.73
2019-05-22T05:54:30.490Z,97971.73
2019-05-22T05:55:34.729Z,97975.34
2019-05-22T05:56:39.165Z,97973.64
2019-05-22T05:57:43.275Z,97977.20
2019-05-22T05:58:49.363Z,97977.20
2019-05-22T05:59:53.215Z,97975.81
2019-05-22T06:00:57.917Z,97975.81
2019-05-22T06:02:02.273Z,97972.13
2019-05-22T06:03:05.436Z,97972.70
2019-05-22T06:04:12.856Z,97971.34
2019-05-22T06:05:15.720Z,97981.95
2019-05-22T06:06:19.275Z,97986.70
2019-05-22T06:07:23.482Z,97989.70
2019-05-22T06:08:35.860Z,97989.70
2019-05-22T06:09:40.484Z,97998.53
2019-05-22T06:10:47.169Z,97996.82
2019-05-22T06:11:52.586Z,97996.30
2019-05-22T06:12:56.081Z,97995.42
2019-05-22T06:14:02.070Z,97997.48
2019-05-22T06:15:06.249Z,97998.09
2019-05-22T06:16:09.372Z,98002.17
2019-05-22T06:17:13.162Z,98008.01
2019-05-22T06:18:16.595Z,98007.08
2019-05-22T06:19:20.794Z,98006.07
2019-05-22T06:20:25.500Z,98004.63
2019-05-22T06:21:29.406Z,98010.00
2019-05-22T06:22:32.215Z,97984.29
2019-05-22T06:23:36.563Z,97984.29
2019-05-22T06:24:43.042Z,98006.73
2019-05-22T06:25:48.451Z,98003.08
2019-05-22T06:26:51.546Z,98014.81
2019-05-22T06:27:56.277Z,98014.81
2019-05-22T06:28:59.926Z,98014.53
2019-05-22T06:30:08.256Z,98009.88
2019-05-22T06:31:11.614Z,98019.89
2019-05-22T06:32:16.087Z,98027.33
2019-05-22T06:33:18.979Z,98031.58
2019-05-22T06:34:23.220Z,98026.98
2019-05-22T06:35:27.114Z,98027.87
2019-05-22T06:36:30.472Z,98025.81
2019-05-22T06:37:33.778Z,98031.36
2019-05-22T06:38:37.803Z,98031.66
2019-05-22T06:39:51.864Z,98035.65
2019-05-22T06:41:03.991Z,98035.65
2019-05-22T06:42:06.237Z,98029.28
2019-05-22T06:43:11.795Z,98029.28
2019-05-22T06:44:15.213Z,98024.58
2019-05-22T06:45:19.169Z,98024.58
2019-05-22T06:46:24.212Z,98030.80
2019-05-22T06:47:29.607Z,98030.80
2019-05-22T06:48:32.608Z,98035.13
2019-05-22T06:49:36.155Z,98028.67
2019-05-22T06:50:39.262Z,98033.92
2019-05-22T06:51:42.619Z,98039.61
2019-05-22T06:53:07.359Z,98039.56
2019-05-22T06:53:57.180Z,98031.83
2019-05-22T06:54:59.685Z,98031.83
2019-05-22T06:56:03.088Z,98037.75
2019-05-22T06:58:45.195Z,98038.20
2019-05-22T07:00:10.726Z,98038.20
2019-05-22T07:01:06.330Z,98040.59
2019-05-22T07:02:10.717Z,98033.66
2019-05-22T07:03:13.747Z,98040.05
2019-05-22T07:04:19.878Z,98038.73
2019-05-22T07:05:26.875Z,98038.73
2019-05-22T07:06:30.737Z,98040.92
2019-05-22T07:07:33.530Z,98045.49
2019-05-22T07:08:41.604Z,98040.09
2019-05-22T07:09:47.855Z,98051.14
2019-05-22T07:11:04.571Z,98054.74
2019-05-22T07:12:01.342Z,98052.16
2019-05-22T07:13:06.452Z,98046.32
2019-05-22T07:14:09.795Z,98039.38
2019-05-22T07:15:14.827Z,98052.94
2019-05-22T07:16:19.976Z,98050.39
2019-05-22T07:17:24.434Z,98057.53
2019-05-22T07:18:31.705Z,98048.39
2019-05-22T07:19:35.121Z,98048.39
2019-05-22T07:20:39.450Z,98061.41
2019-05-22T07:21:43.226Z,98061.41
2019-05-22T07:22:46.631Z,98058.95
2019-05-22T07:23:52.450Z,98048.63
2019-05-22T07:24:55.845Z,98057.77
2019-05-22T07:25:59.382Z,98061.73
2019-05-22T07:27:02.202Z,98061.73
2019-05-22T07:28:12.861Z,98066.55
2019-05-22T07:29:15.703Z,98058.03
2019-05-22T07:30:24.079Z,98065.59
2019-05-22T07:31:27.221Z,98056.05
2019-05-22T07:32:32.898Z,98056.05
2019-05-22T07:33:35.841Z,98072.72
2019-05-22T07:34:39.420Z,98067.27
2019-05-22T07:36:04.442Z,98068.02
2019-05-22T07:36:48.424Z,98068.02
2019-05-22T07:37:54.239Z,98072.80
2019-05-22T07:38:57.960Z,98072.80
2019-05-22T07:40:02.168Z,98071.56
2019-05-22T07:41:09.738Z,98079.30
2019-05-22T07:42:12.696Z,98077.66
2019-05-22T07:43:17.368Z,98079.78
2019-05-22T07:44:20.257Z,98076.58
2019-05-22T07:45:23.690Z,98076.58
2019-05-22T07:46:30.242Z,98071.59
2019-05-22T07:47:31.753Z,98078.89
2019-05-22T07:48:34.762Z,98078.91
2019-05-22T07:49:40.388Z,98081.59
2019-05-22T07:50:49.598Z,98077.06
2019-05-22T07:52:00.678Z,98080.21
2019-05-22T07:52:57.726Z,98083.73
2019-05-22T07:54:02.201Z,98083.73
2019-05-22T07:55:09.836Z,98078.10
2019-05-22T07:56:13.671Z,98076.83
2019-05-22T07:57:21.906Z,98075.47
2019-05-22T07:58:29.425Z,98082.22
2019-05-22T07:59:32.708Z,98084.48
2019-05-22T08:00:36.244Z,98084.48
2019-05-22T08:01:39.292Z,98081.01
2019-05-22T08:02:43.820Z,98088.91
2019-05-22T08:03:46.685Z,98081.22
2019-05-22T08:04:50.114Z,98081.22
2019-05-22T08:05:53.046Z,98083.45
2019-05-22T08:06:58.411Z,98090.84
2019-05-22T08:08:01.591Z,98088.45
2019-05-22T08:09:11.399Z,98082.67
2019-05-22T08:10:16.088Z,98082.67
2019-05-22T08:12:44.597Z,98088.81
2019-05-22T08:13:54.242Z,98086.09
2019-05-22T08:15:21.318Z,98084.37
2019-05-22T08:16:20.226Z,98084.37
2019-05-22T08:17:23.472Z,98089.58
2019-05-22T08:18:28.007Z,98094.98
2019-05-22T08:19:30.923Z,98099.58
2019-05-22T08:20:37.439Z,98086.15
2019-05-22T08:21:40.903Z,98095.20
2019-05-22T08:22:44.770Z,98103.28
2019-05-22T08:23:47.732Z,98103.28
2019-05-22T08:24:51.641Z,98102.57
2019-05-22T08:25:54.987Z,98100.97
2019-05-22T08:26:58.483Z,98100.97
2019-05-22T08:28:02.005Z,98094.48
2019-05-22T08:29:05.826Z,98094.48
2019-05-22T08:30:09.762Z,98096.69
2019-05-22T08:31:14.058Z,98103.45
2019-05-22T08:32:17.206Z,98098.03
2019-05-22T08:33:23.327Z,98099.16
2019-05-22T08:34:26.490Z,98109.36
2019-05-22T08:35:30.055Z,98109.36
2019-05-22T08:36:38.603Z,98101.25
2019-05-22T08:37:41.355Z,98104.28
2019-05-22T08:38:44.229Z,98104.64
2019-05-22T08:39:48.170Z,98118.16
2019-05-22T08:40:53.342Z,98117.05
2019-05-22T08:41:56.806Z,98109.72
2019-05-22T08:42:59.726Z,98114.11
2019-05-22T08:44:16.333Z,98114.05
2019-05-22T08:45:07.882Z,98108.54
2019-05-22T08:46:11.837Z,98108.54
2019-05-22T08:47:15.224Z,98099.62
2019-05-22T08:48:21.827Z,98114.20
2019-05-22T08:49:25.782Z,98115.45
2019-05-22T08:50:30.881Z,98115.45
2019-05-22T08:51:36.121Z,98112.14
2019-05-22T08:52:39.825Z,98112.14
2019-05-22T08:53:50.125Z,98106.97
2019-05-22T08:54:56.216Z,98125.73
2019-05-22T08:55:59.123Z,98130.06
2019-05-22T08:57:06.575Z,98127.31
2019-05-22T08:58:10.496Z,98127.31
2019-05-22T08:59:19.451Z,98128.16
2019-05-22T09:00:21.484Z,98131.54
2019-05-22T09:01:25.767Z,98135.42
2019-05-22T09:02:34.169Z,98136.20
2019-05-22T09:03:40.151Z,98136.20
2019-05-22T09:04:43.075Z,98134.52
2019-05-22T09:05:48.823Z,98135.27
2019-05-22T09:06:51.505Z,98142.68
2019-05-22T09:08:08.812Z,98139.83
2019-05-22T09:09:11.717Z,98139.83
2019-05-22T09:10:15.538Z,98142.47
2019-05-22T09:11:18.488Z,98145.01
2019-05-22T09:12:22.966Z,98144.68
2019-05-22T09:13:25.855Z,98131.55
2019-05-22T09:14:29.420Z,98144.23
2019-05-22T09:15:34.622Z,98133.96
2019-05-22T09:16:38.035Z,98130.52
2019-05-22T09:17:41.419Z,98137.99
2019-05-22T09:18:45.654Z,98137.99
2019-05-22T09:19:49.283Z,98130.88
2019-05-22T09:20:52.877Z,98136.35
2019-05-22T09:21:55.715Z,98131.13
2019-05-22T09:22:59.234Z,98133.00
2019-05-22T09:24:02.521Z,98146.95
2019-05-22T09:25:06.383Z,98146.95
2019-05-22T09:26:09.443Z,98142.47
2019-05-22T09:27:13.389Z,98146.70
2019-05-22T09:28:17.566Z,98146.70
2019-05-22T09:29:22.228Z,98145.14
2019-05-22T09:30:25.232Z,98148.34
2019-05-22T09:31:30.122Z,98142.06
2019-05-22T09:32:32.994Z,98152.09
2019-05-22T09:33:36.721Z,98152.09
2019-05-22T09:34:41.015Z,98149.86
2019-05-22T09:35:44.465Z,98150.36
2019-05-22T09:36:47.349Z,98150.36
2019-05-22T09:37:50.822Z,98154.72
2019-05-22T09:38:56.485Z,98148.11
2019-05-22T09:40:00.014Z,98149.23
2019-05-22T09:41:03.282Z,98141.28
2019-05-22T09:42:07.051Z,98151.09
2019-05-22T09:43:14.169Z,98151.09
2019-05-22T09:44:17.684Z,98150.13
2019-05-22T09:45:22.236Z,98156.53
2019-05-22T09:46:28.377Z,98144.21
2019-05-22T09:47:33.772Z,98161.64
2019-05-22T09:48:40.951Z,98161.64
2019-05-22T09:49:45.636Z,98157.70
2019-05-22T09:50:49.960Z,98167.63
2019-05-22T09:51:53.798Z,98168.44
2019-05-22T09:53:00.437Z,98168.44
2019-05-22T09:54:05.288Z,98184.06
2019-05-22T09:55:09.062Z,98184.06
2019-05-22T09:56:12.264Z,98170.35
2019-05-22T09:57:15.857Z,98182.07
2019-05-22T09:58:18.942Z,98167.30
2019-05-22T09:59:22.664Z,98167.30
2019-05-22T10:00:29.898Z,98172.73
2019-05-22T10:01:34.400Z,98173.00
2019-05-22T10:02:45.153Z,98168.80
2019-05-22T10:03:48.376Z,98169.08
2019-05-22T10:04:53.918Z,98171.16
2019-05-22T10:05:57.422Z,98169.11
2019-05-22T10:07:00.396Z,98179.20
2019-05-22T10:08:04.871Z,98184.02
2019-05-22T10:09:07.737Z,98178.34
2019-05-22T10:10:11.551Z,98178.34
2019-05-22T10:11:14.396Z,98177.59
2019-05-22T10:12:22.894Z,98181.84
2019-05-22T10:13:29.015Z,98182.86
2019-05-22T10:14:31.845Z,98190.06
2019-05-22T10:15:34.982Z,98185.02
2019-05-22T10:16:38.429Z,98183.95
2019-05-22T10:17:41.948Z,98173.05
2019-05-22T10:18:45.407Z,98183.63
2019-05-22T10:19:48.290Z,98185.55
2019-05-22T10:20:52.110Z,98186.56
2019-05-22T10:21:56.176Z,98179.48
2019-05-22T10:23:14.085Z,98184.90
2019-05-22T10:24:04.287Z,98190.62
2019-05-22T10:25:15.927Z,98183.42
2019-05-22T10:26:12.819Z,98183.42
2019-05-22T10:27:20.093Z,98185.48
2019-05-22T10:28:24.661Z,98184.47
2019-05-22T10:29:32.003Z,98182.38
2019-05-22T10:42:53.719Z,98192.88
2019-05-22T10:43:57.582Z,98192.88
2019-05-22T10:45:00.504Z,98184.90
2019-05-22T10:46:11.097Z,98182.44
2019-05-22T10:47:14.407Z,98179.34
2019-05-22T10:48:19.601Z,98187.28
2019-05-22T10:49:22.517Z,98178.66
2019-05-22T10:50:28.741Z,98185.50
2019-05-22T10:51:35.918Z,98178.48
2019-05-22T10:52:39.820Z,98183.97
2019-05-22T10:53:42.805Z,98192.14
2019-05-22T10:54:46.763Z,98192.98
2019-05-22T10:55:51.279Z,98192.98
2019-05-22T10:56:57.128Z,98189.97
2019-05-22T10:58:00.060Z,98191.83
2019-05-22T10:59:04.005Z,98187.81
2019-05-22T11:00:10.444Z,98188.36
2019-05-22T11:01:14.354Z,98189.75
2019-05-22T11:02:17.350Z,98181.32
2019-05-22T11:03:21.376Z,98191.80
2019-05-22T11:04:24.971Z,98186.08
2019-05-22T11:05:28.552Z,98180.67
2019-05-22T11:06:33.009Z,98183.44
2019-05-22T11:07:39.419Z,98183.44
2019-05-22T11:08:42.737Z,98177.18
2019-05-22T11:09:46.211Z,98179.34
2019-05-22T11:10:50.041Z,98183.45
2019-05-22T11:11:58.117Z,98177.07
2019-05-22T11:13:03.075Z,98179.34
2019-05-22T11:14:09.475Z,98179.34
2019-05-22T11:15:13.029Z,98189.92
2019-05-22T11:16:16.280Z,98179.21
2019-05-22T11:17:19.457Z,98183.80
2019-05-22T11:18:22.794Z,98186.19
2019-05-22T11:19:26.179Z,98188.72
2019-05-22T11:20:32.551Z,98189.36
2019-05-22T11:21:38.603Z,98187.07
2019-05-22T11:22:45.119Z,98195.06
2019-05-22T11:23:52.573Z,98187.23
2019-05-22T11:24:53.242Z,98191.86
2019-05-22T11:25:56.496Z,98189.44
2019-05-22T11:27:02.710Z,98189.44
2019-05-22T11:28:06.053Z,98187.47
2019-05-22T11:29:11.988Z,98193.48
2019-05-22T11:30:14.835Z,98193.48
2019-05-22T11:31:19.302Z,98193.31
2019-05-22T11:32:22.554Z,98189.91
2019-05-22T11:33:29.044Z,98189.94
2019-05-22T11:34:34.926Z,98194.48
2019-05-22T11:35:38.384Z,98186.67
2019-05-22T11:36:41.223Z,98184.04
2019-05-22T11:37:46.336Z,98181.95
2019-05-22T11:38:49.285Z,98188.62
2019-05-22T11:40:06.066Z,98184.31
2019-05-22T11:41:00.348Z,98184.31
2019-05-22T11:42:04.150Z,98183.66
2019-05-22T11:43:07.996Z,98181.30
2019-05-22T11:44:12.003Z,98190.31
2019-05-22T11:45:15.152Z,98196.61
2019-05-22T11:46:18.724Z,98200.19
2019-05-22T11:47:21.656Z,98200.19
2019-05-22T11:48:29.209Z,98192.55
2019-05-22T11:49:32.438Z,98184.24
2019-05-22T11:50:38.842Z,98184.24
2019-05-22T11:51:41.760Z,98184.80
2019-05-22T11:52:45.267Z,98187.97
2019-05-22T11:53:48.584Z,98192.89
2019-05-22T11:54:53.550Z,98192.89
2019-05-22T11:55:58.000Z,98181.04
2019-05-22T11:57:01.879Z,98181.04
2019-05-22T11:58:17.187Z,98189.00
2019-05-22T11:59:20.785Z,98189.00
2019-05-22T12:00:23.920Z,98184.92
2019-05-22T12:01:30.472Z,98184.92
2019-05-22T12:02:36.305Z,98193.13
2019-05-22T12:03:41.428Z,98172.33
2019-05-22T12:04:48.117Z,98177.94
2019-05-22T12:05:49.511Z,98174.74
2019-05-22T12:06:53.856Z,98169.25
2019-05-22T12:07:57.771Z,98169.25
2019-05-22T12:09:01.625Z,98168.84
2019-05-22T12:10:05.399Z,98165.86
2019-05-22T12:11:08.657Z,98167.84
2019-05-22T12:12:14.952Z,98168.48
2019-05-22T12:13:18.336Z,98168.63
2019-05-22T12:14:22.161Z,98167.55
2019-05-22T12:15:25.387Z,98167.55
2019-05-22T12:16:35.351Z,98160.59
2019-05-22T12:18:11.310Z,98165.52
2019-05-22T12:18:48.878Z,98165.52
2019-05-22T12:19:51.915Z,98168.41
2019-05-22T12:20:55.398Z,98171.63
2019-05-22T12:21:58.636Z,98166.31
2019-05-22T12:23:02.313Z,98173.66
2019-05-22T12:24:06.224Z,98173.17
2019-05-22T12:25:09.750Z,98171.75
2019-05-22T12:26:12.931Z,98175.65
2019-05-22T12:27:16.452Z,98175.65
2019-05-22T12:28:19.241Z,98165.20
2019-05-22T12:29:23.001Z,98176.94
2019-05-22T12:30:25.914Z,98176.94
2019-05-22T12:31:36.614Z,98166.08
2019-05-22T12:32:40.910Z,98166.36
2019-05-22T12:33:44.355Z,98162.86
2019-05-22T12:34:49.514Z,98160.30
2019-05-22T12:35:53.820Z,98160.30
2019-05-22T12:36:56.742Z,98167.73
2019-05-22T12:38:01.462Z,98161.54
2019-05-22T12:39:04.732Z,98161.54
2019-05-22T12:40:10.987Z,98156.44
2019-05-22T12:41:15.197Z,98144.95
2019-05-22T12:42:19.003Z,98146.77
2019-05-22T12:43:22.427Z,98155.66
2019-05-22T12:44:30.061Z,98160.27
2019-05-22T12:45:33.255Z,98167.28
2019-05-22T12:46:39.102Z,98157.91
2019-05-22T12:47:43.469Z,98158.52
2019-05-22T12:48:48.014Z,98164.36
2019-05-22T12:49:50.918Z,98161.44
2019-05-22T12:51:06.771Z,98160.28
2019-05-22T12:52:33.317Z,98158.88
2019-05-22T12:53:26.935Z,98161.81
2019-05-22T12:54:36.806Z,98169.23
2019-05-22T12:55:33.105Z,98169.23
2019-05-22T12:56:41.973Z,98155.23
2019-05-22T12:57:48.209Z,98164.89
2019-05-22T12:58:52.716Z,98164.89
2019-05-22T13:00:02.234Z,98160.26
2019-05-22T13:01:05.355Z,98157.16
2019-05-22T13:02:19.851Z,98157.16
2019-05-22T13:03:23.912Z,98160.86
2019-05-22T13:04:30.496Z,98158.97
2019-05-22T13:05:44.287Z,98156.84
2019-05-22T13:06:48.305Z,98150.47
2019-05-22T13:08:00.838Z,98150.47
2019-05-22T13:09:07.058Z,98161.06
2019-05-22T13:10:10.394Z,98155.87
2019-05-22T13:11:14.403Z,98142.20